Currently 63°F in San Jacinto, California, USA
63°F
63°F / 59°F
calm
0.00"
Sunday, June 16, 2019 8:07 AM PDT

San Jacinto, California Weather Summary
Last 36 Hours

Temperature Winds Hourly Humidity Dewpoint
Time Report Norm Report Norm Max Gusts Precip. Rpt. Norm Rpt. Norm Pressure
1Sun 08:07 AM  62.8°F  66°F  calm  1 mph  3 mph  0.00"  84%  61%  58°F  52°F  29.87"
2Sun 08:02 AM  62.8°F  66°F  calm  1 mph  3 mph  ----  84%  62%  58°F  52°F  29.87"
Sun 08:00 AM  62.6°F  66°F  calm  1 mph  3 mph  0.00"  85%  62%  58°F  52°F  29.87"
Sun 07:00 AM  61.0°F  62°F  calm  calm  5 mph  0.00"  87%  68%  57°F  51°F  29.87"
Sun 06:00 AM  60.6°F  60°F  4 mph W  1 mph  3 mph  0.00"  89%  71%  57°F  50°F  29.86"
Sun 05:00 AM  60.3°F  61°F  1 mph S  calm  3 mph  0.00"  89%  70%  57°F  50°F  29.86"
Sun 04:00 AM  59.5°F  61°F  calm  1 mph  3 mph  0.00"  89%  69%  56°F  51°F  29.86"
3Sun 03:03 AM  58.8°F  62°F  calm  1 mph  none  ----  89%  69%  55°F  52°F  29.87"
Sun 03:00 AM  59.0°F  62°F  calm  1 mph  none  0.00"  89%  69%  56°F  52°F  29.87"
Sun 02:00 AM  59.4°F  63°F  calm  1 mph  3 mph  0.00"  88%  67%  56°F  52°F  29.87"
Sun 01:00 AM  60.6°F  65°F  1 mph S  1 mph  5 mph  0.00"  85%  66%  56°F  53°F  29.89"
Sun 12:00 AM  62.2°F  67°F  calm  1 mph  3 mph  0.00"  81%  63%  56°F  53°F  29.90"
Sat 11:00 PM  63.5°F  68°F  calm  1 mph  5 mph  0.00"  79%  60%  57°F  53°F  29.91"
Sat 10:00 PM  64.9°F  70°F  3 mph SW  1 mph  7 mph  0.00"  75%  55%  57°F  53°F  29.90"
Sat 09:00 PM  67.8°F  73°F  2 mph SW  2 mph  11 mph  0.00"  69%  50%  57°F  52°F  29.89"
Sat 08:00 PM  71.4°F  76°F  8 mph SW  3 mph  11 mph  0.00"  62%  43%  57°F  51°F  29.87"
Sat 07:00 PM  76.8°F  81°F  2 mph SW  4 mph  17 mph  0.00"  53%  37%  58°F  51°F  29.87"
Sat 06:00 PM  81.0°F  84°F  12 mph SW  6 mph  17 mph  0.00"  47%  33%  58°F  50°F  29.84"
Sat 05:00 PM  84.7°F  86°F  9 mph S  6 mph  16 mph  0.00"  40%  29%  57°F  49°F  29.84"
Sat 04:00 PM  87.6°F  88°F  6 mph SW  6 mph  15 mph  0.00"  34%  27%  55°F  48°F  29.84"
Sat 03:00 PM  87.6°F  88°F  2 mph W  5 mph  9 mph  0.00"  34%  26%  55°F  48°F  29.85"
Sat 02:00 PM  83.3°F  87°F  5 mph SE  4 mph  11 mph  0.00"  41%  27%  56°F  48°F  29.88"
Sat 01:00 PM  77.2°F  85°F  3 mph NW  3 mph  10 mph  0.00"  53%  30%  58°F  49°F  29.90"
Sat 12:00 PM  74.8°F  82°F  4 mph W  2 mph  8 mph  0.00"  55%  34%  57°F  50°F  29.92"
Sat 11:00 AM  69.3°F  79°F  2 mph W  2 mph  7 mph  0.00"  66%  39%  57°F  51°F  29.94"
Sat 10:00 AM  63.7°F  75°F  1 mph W  1 mph  8 mph  0.00"  80%  47%  57°F  52°F  29.94"
Sat 09:00 AM  61.0°F  70°F  calm  1 mph  5 mph  0.00"  83%  56%  56°F  53°F  29.95"
Sat 08:00 AM  59.4°F  65°F  2 mph S  1 mph  3 mph  0.00"  86%  64%  55°F  52°F  29.95"
Sat 07:00 AM  58.3°F  62°F  calm  1 mph  6 mph  0.00"  88%  69%  55°F  51°F  29.94"
Sat 06:00 AM  57.2°F  60°F  calm  1 mph  5 mph  0.00"  89%  72%  54°F  50°F  29.93"
Sat 05:00 AM  56.7°F  60°F  1 mph S  calm  5 mph  0.00"  87%  72%  53°F  51°F  29.91"
Sat 04:00 AM  57.2°F  61°F  calm  1 mph  3 mph  0.00"  85%  70%  53°F  51°F  29.91"
Sat 03:00 AM  58.3°F  62°F  calm  1 mph  3 mph  0.00"  84%  70%  53°F  52°F  29.90"
Sat 02:00 AM  59.2°F  63°F  1 mph S  1 mph  3 mph  0.00"  82%  69%  54°F  52°F  29.91"
Sat 01:00 AM  60.1°F  64°F  calm  1 mph  5 mph  0.00"  80%  68%  54°F  53°F  29.91"
Sat 12:00 AM  61.0°F  66°F  calm  1 mph  6 mph  0.00"  78%  65%  54°F  53°F  29.92"
Fri 11:00 PM  62.1°F  68°F  calm  1 mph  7 mph  0.00"  76%  61%  54°F  53°F  29.93"
Fri 10:00 PM  63.9°F  70°F  4 mph SW  1 mph  9 mph  0.00"  72%  57%  54°F  53°F  29.92"
Fri 09:00 PM  65.1°F  72°F  4 mph SW  2 mph  13 mph  0.00"  70%  51%  55°F  53°F  29.91"

  1. Current weather data. No green row appears if the current weather data is also the high or low for the current day.
  2. High temperature for the current day.
  3. Low temperature for the current day.

The San Jacinto, California weather pages are a service of WeatherCurrents. San Jacinto is located in the heart of the San Jacinto Valley, near Hemet, the Soboba Casino, and at the foot of the San Jacinto Mountains.
Copyright ©2019  WeatherCurrents. All rights reserved. - Submit questions and comments - Privacy Policy

This page automatically refreshes every 10 minutes.